Aeroporto :
LOGIN :

Iscrizione | Disclaimer

   EN    FR    IT 

 










Sommario :    VFR   VFR Marginale   IFR   IFR Intensivo   IFR Molto Intensivo
Visibilità : 
Base nubi : 
>= 8 km
>= 3000ft
5 / 8 km
1000 / 3000 ft
1500m / 5 km
500 / 1000 ft
800 / 1500m
200 / 500 ft
< 800m
< 200 ft
Simboli :   Temporali  Nebbia  Neve Forte  Precipitazioni Forti  Vento > 20 kt
SIGMETs :   Varie  Temporali  Ghiacco  Turbolenza  Onda orograficha  Ceneri Vulcaniche






- Altitudine del aeroporto : 755 ft
- Codice IATA : DRS


EDDC - Dresden Klotzsche

ULTIMO METAR :
  • 130920Z 17004KT 9999 -RA BKN031 04/03 Q1003 NOSIG

METARs OBSOLETI :
  • 130850Z 16003KT 110V190 9999 -RA BKN029 04/02 Q1003 NOSIG
  • 130820Z 14004KT 9999 -RA BKN029 04/02 Q1003 NOSIG
  • 130750Z 18004KT 9999 BKN039 03/02 Q1003 NOSIG
  • 130720Z 23003KT 180V270 9999 -RA BKN022 03/02 Q1003 NOSIG

TAF TAF EDDC
Valido dal 13 a 06 ore il 14 a 06 ore UTC


130500Z 1306/1406 16005KT CAVOK
PROB30
TEMPO 1308/1319 4000 -RA



MetMap, La meteo Aeronautica in un colpo d'occhio ! - Copyright ORBIFLY Dicembre 2007 - Disclaimer

ORBIFLY MET'MAP TEAM :

Programmazione e sviluppo : Alexandra Zaïnal
Concezione e sviluppo : Baudouin d'Aumeries
Co-Programmazione e sviluppo : Marc-Olivier Méhu
Supporto tecnico e logistico : Manuel Goepfert
Aiuto per la traduzione : Arnaldo La Scala

Contatto : metmap@orbifly.com




FONTI E CREDITI :

   NOAA